Time;durP1;ratioP1;P1;durP2;ratioP2;P2;SDS_P1;SDS_P2;PMS_P1;PMS_P2;Temp;Humidity;BMP_temperature;BMP_pressure;BME280_temperature;BME280_humidity;BME280_pressure;Samples;Min_cycle;Max_cycle;Signal;HPM_P1;HPM_P2
2023/10/27 00:01:34;;;;;;;8.60;4.32;;;;;;;16.24;70.57;98132.69;4423141;32;34073;-78
2023/10/27 00:04:02;;;;;;;6.57;3.97;;;;;;;15.99;71.60;98125.84;4424711;32;34412;-78
2023/10/27 00:06:32;;;;;;;8.68;4.60;;;;;;;16.02;71.76;98131.06;4425491;32;34009;-78
2023/10/27 00:09:00;;;;;;;7.72;4.68;;;;;;;16.05;71.40;98124.09;4428487;32;33066;-78
2023/10/27 00:11:28;;;;;;;8.88;4.45;;;;;;;16.62;69.17;98117.69;4428267;32;33800;-78
2023/10/27 00:13:56;;;;;;;8.32;4.30;;;;;;;16.00;71.45;98115.41;4421354;32;33733;-78
2023/10/27 00:16:23;;;;;;;7.45;4.35;;;;;;;15.96;71.90;98111.06;4433763;32;33553;-78
2023/10/27 00:18:51;;;;;;;7.97;4.47;;;;;;;15.87;72.70;98119.78;4423762;32;33436;-78
2023/10/27 00:21:18;;;;;;;8.18;4.22;;;;;;;15.90;72.74;98119.78;4428761;32;33788;-78
2023/10/27 00:23:46;;;;;;;8.90;4.20;;;;;;;16.19;71.46;98108.34;4426737;32;33827;-78
2023/10/27 00:26:14;;;;;;;7.65;4.28;;;;;;;15.85;72.77;98113.72;4433870;32;33337;-78
2023/10/27 00:28:42;;;;;;;8.38;4.30;;;;;;;16.03;72.37;98117.13;4427260;32;33595;-78
2023/10/27 00:31:10;;;;;;;7.20;4.40;;;;;;;16.45;70.30;98104.72;4415483;32;33121;-78
2023/10/27 00:33:38;;;;;;;8.45;4.50;;;;;;;16.29;70.99;98109.19;4425953;32;33537;-78
2023/10/27 00:36:05;;;;;;;10.02;4.53;;;;;;;16.17;71.67;98104.00;4410506;32;33791;-78
2023/10/27 00:38:33;;;;;;;9.65;4.35;;;;;;;15.91;72.73;98108.47;4429389;32;34474;-78
2023/10/27 00:41:01;;;;;;;8.38;4.72;;;;;;;15.97;72.81;98107.56;4426379;32;34168;-78
2023/10/27 00:43:29;;;;;;;8.10;4.82;;;;;;;16.02;72.82;98105.81;4413821;32;34520;-78
2023/10/27 00:45:56;;;;;;;7.97;4.40;;;;;;;15.89;73.66;98107.59;4422018;32;31991;-78
2023/10/27 00:48:24;;;;;;;9.30;4.65;;;;;;;15.95;73.46;98108.47;4426448;32;33829;-78
2023/10/27 00:50:51;;;;;;;9.02;4.80;;;;;;;16.01;73.46;98108.44;4413443;32;33791;-78
2023/10/27 00:53:23;;;;;;;8.35;4.37;;;;;;;15.94;73.70;98104.13;4414280;32;34319;-78
2023/10/27 00:55:50;;;;;;;9.33;4.50;;;;;;;16.08;73.51;98105.78;4425726;32;32847;-78
2023/10/27 00:58:20;;;;;;;8.47;4.03;;;;;;;15.97;74.27;98106.72;4416660;32;33529;-78
2023/10/27 01:00:47;;;;;;;8.35;4.25;;;;;;;15.99;74.47;98105.81;4423466;32;34322;-77
2023/10/27 01:03:15;;;;;;;7.63;4.23;;;;;;;16.03;74.65;98101.44;4418448;32;33768;-77
2023/10/27 01:05:42;;;;;;;9.13;4.40;;;;;;;16.08;74.55;98104.94;4412675;32;34167;-78
2023/10/27 01:08:10;;;;;;;8.73;4.28;;;;;;;16.06;74.68;98101.44;4428274;32;33788;-77
2023/10/27 01:10:38;;;;;;;7.47;4.10;;;;;;;16.18;74.59;98104.00;4428141;32;34664;-78
2023/10/27 01:13:07;;;;;;;10.15;4.68;;;;;;;16.60;72.71;98094.19;4430488;32;33456;-78
2023/10/27 01:15:34;;;;;;;7.80;4.35;;;;;;;16.40;73.51;98096.94;4430431;32;33258;-77
2023/10/27 01:18:02;;;;;;;8.18;4.47;;;;;;;16.26;74.12;98099.62;4424488;32;34378;-78
2023/10/27 01:20:30;;;;;;;7.78;4.20;;;;;;;16.34;74.00;98091.75;4419915;32;33844;-78
2023/10/27 01:23:01;;;;;;;7.72;4.28;;;;;;;16.33;74.28;98094.34;4409814;32;34234;-78
2023/10/27 01:25:29;;;;;;;9.83;4.57;;;;;;;16.59;73.17;98087.22;4397989;32;33863;-78
2023/10/27 01:27:57;;;;;;;10.27;5.00;;;;;;;16.52;73.61;98075.06;4431005;32;34379;-78
2023/10/27 01:30:25;;;;;;;8.40;4.90;;;;;;;16.48;74.38;98081.19;4432618;32;33560;-78
2023/10/27 01:32:53;;;;;;;8.75;4.62;;;;;;;16.31;75.28;98073.47;4427219;32;34458;-77
2023/10/27 01:35:20;;;;;;;7.73;4.70;;;;;;;16.31;75.61;98076.06;4412116;32;33836;-77
2023/10/27 01:37:48;;;;;;;8.30;4.80;;;;;;;16.80;73.96;98074.84;4429530;32;33818;-77
2023/10/27 01:40:15;;;;;;;9.23;4.60;;;;;;;16.69;74.18;98073.19;4424150;32;33699;-77
2023/10/27 01:42:43;;;;;;;9.53;4.73;;;;;;;16.71;73.95;98070.59;4416998;32;33736;-78
2023/10/27 01:45:11;;;;;;;9.95;4.20;;;;;;;16.79;74.08;98065.28;4430122;32;33336;-77
2023/10/27 01:47:39;;;;;;;6.65;3.80;;;;;;;16.96;73.44;98059.94;4426799;32;34551;-78
2023/10/27 01:50:08;;;;;;;8.07;3.53;;;;;;;17.02;73.36;98050.31;4428227;32;33750;-78
2023/10/27 01:52:36;;;;;;;8.32;3.50;;;;;;;16.98;73.77;98047.72;4428515;32;32672;-77
2023/10/27 01:55:06;;;;;;;6.55;2.80;;;;;;;16.78;75.60;98050.47;4431623;32;32329;-78
2023/10/27 01:57:33;;;;;;;8.02;3.15;;;;;;;16.78;76.49;98046.09;4431494;32;33749;-78
2023/10/27 02:00:01;;;;;;;7.25;2.87;;;;;;;16.97;76.49;98046.00;4421826;32;33258;-78
2023/10/27 02:02:38;;;;;;;8.45;2.75;;;;;;;16.75;77.96;98051.38;4425540;32;33637;-77
2023/10/27 02:05:07;;;;;;;8.73;2.70;;;;;;;16.80;78.21;98046.94;4425124;32;33340;-78
2023/10/27 02:07:35;;;;;;;5.80;2.70;;;;;;;17.10;77.65;98035.37;4422326;32;33849;-77
2023/10/27 02:10:03;;;;;;;7.22;2.83;;;;;;;17.00;78.36;98031.12;4433550;32;33757;-78
2023/10/27 02:12:31;;;;;;;8.07;3.37;;;;;;;16.98;78.55;98027.69;4434457;32;33834;-78
2023/10/27 02:14:58;;;;;;;6.82;2.80;;;;;;;16.92;78.83;98030.34;4412829;32;33076;-78
2023/10/27 02:17:27;;;;;;;7.28;2.60;;;;;;;17.27;77.31;98023.91;4434146;32;32829;-78
2023/10/27 02:19:55;;;;;;;6.00;2.73;;;;;;;17.06;77.97;98025.00;4428715;32;33795;-78
2023/10/27 02:22:23;;;;;;;6.35;2.65;;;;;;;17.41;76.55;98016.75;4423045;32;33441;-78
2023/10/27 02:24:51;;;;;;;5.47;2.40;;;;;;;17.38;76.07;98011.53;4427790;32;32947;-77
2023/10/27 02:27:18;;;;;;;5.73;2.37;;;;;;;17.43;76.25;97999.28;4426496;32;33669;-78
2023/10/27 02:29:46;;;;;;;6.95;2.40;;;;;;;17.10;78.22;98006.63;4426587;32;33292;-78
2023/10/27 02:32:14;;;;;;;7.47;2.70;;;;;;;17.46;77.35;98014.97;4423998;32;33661;-78
2023/10/27 02:34:42;;;;;;;6.62;2.50;;;;;;;17.23;78.26;98009.09;4425044;32;33183;-78
2023/10/27 02:37:10;;;;;;;5.03;1.98;;;;;;;17.03;78.98;98004.94;4430114;32;34488;-78
2023/10/27 02:39:39;;;;;;;6.90;2.42;;;;;;;17.27;78.27;98008.19;4429892;32;32395;-78
2023/10/27 02:42:07;;;;;;;6.78;2.58;;;;;;;17.51;77.79;97998.31;4424506;32;34135;-78
2023/10/27 02:44:34;;;;;;;5.57;2.42;;;;;;;17.38;78.18;98003.69;4423515;32;33053;-78
2023/10/27 02:47:02;;;;;;;6.15;2.58;;;;;;;17.83;76.08;97997.94;4426949;32;33997;-78
2023/10/27 02:49:30;;;;;;;6.03;2.45;;;;;;;17.49;77.35;97993.97;4423906;32;33754;-78
2023/10/27 02:51:57;;;;;;;5.40;1.83;;;;;;;17.82;76.07;97989.19;4425623;32;34428;-78
2023/10/27 02:54:25;;;;;;;4.73;2.00;;;;;;;17.60;76.88;97983.38;4411648;32;33278;-78
2023/10/27 02:56:52;;;;;;;5.17;1.40;;;;;;;17.48;78.57;97986.13;4424947;32;34396;-78
2023/10/27 02:59:20;;;;;;;4.45;1.80;;;;;;;17.66;77.84;97985.06;4425696;32;33792;-78
2023/10/27 03:01:48;;;;;;;4.80;1.50;;;;;;;17.36;79.47;97971.44;4412792;32;34397;-78
2023/10/27 03:04:15;;;;;;;4.10;1.30;;;;;;;17.27;79.72;97971.56;4414613;32;32871;-79
2023/10/27 03:06:44;;;;;;;3.65;1.25;;;;;;;17.97;77.12;97980.28;4431751;32;33234;-78
2023/10/27 03:09:11;;;;;;;4.25;1.17;;;;;;;17.81;78.03;97969.12;4407003;32;787561;-79
2023/10/27 03:11:39;;;;;;;3.57;1.10;;;;;;;17.53;79.15;97967.75;4431577;32;33962;-78
2023/10/27 03:14:06;;;;;;;3.67;1.00;;;;;;;17.68;79.20;97972.81;4432011;32;33296;-79
2023/10/27 03:16:35;;;;;;;2.43;0.90;;;;;;;18.17;76.61;97966.87;4420586;32;31985;-78
2023/10/27 03:19:02;;;;;;;2.95;0.85;;;;;;;18.15;76.30;97957.34;4427255;32;34309;-79
2023/10/27 03:21:30;;;;;;;3.05;1.10;;;;;;;18.04;76.96;97941.75;4428812;32;33274;-79
2023/10/27 03:23:58;;;;;;;3.28;1.25;;;;;;;17.98;77.54;97941.84;4431830;32;33219;-78
2023/10/27 03:26:25;;;;;;;5.72;1.60;;;;;;;18.20;76.92;97935.41;4431309;32;34326;-79
2023/10/27 03:28:52;;;;;;;4.20;1.40;;;;;;;18.34;76.11;97927.31;4422240;32;33804;-78
2023/10/27 03:31:20;;;;;;;3.47;1.05;;;;;;;18.49;75.16;97926.19;4425153;32;34601;-78
2023/10/27 03:33:48;;;;;;;1.67;0.70;;;;;;;18.55;74.91;97926.09;4433291;32;33301;-79
2023/10/27 03:36:16;;;;;;;2.70;0.50;;;;;;;18.03;77.00;97912.09;4433925;32;33415;-78
2023/10/27 03:38:44;;;;;;;2.30;0.60;;;;;;;18.28;76.09;97917.78;4433098;32;33566;-79
2023/10/27 03:41:12;;;;;;;2.35;0.60;;;;;;;18.20;76.58;97913.59;4422448;32;32221;-78
2023/10/27 03:43:40;;;;;;;2.10;0.68;;;;;;;18.04;77.16;97912.94;4426099;32;33185;-79
2023/10/27 03:46:07;;;;;;;1.95;0.60;;;;;;;17.83;78.40;97906.28;4433875;32;33693;-79
2023/10/27 03:48:35;;;;;;;2.60;0.75;;;;;;;17.54;79.17;97898.81;4424140;32;32733;-79
2023/10/27 03:51:06;;;;;;;2.92;1.00;;;;;;;17.67;79.45;97897.75;4428936;32;34239;-79
2023/10/27 03:53:34;;;;;;;2.40;0.90;;;;;;;17.78;79.19;97901.06;4430423;32;33825;-78
2023/10/27 03:56:01;;;;;;;2.83;1.10;;;;;;;18.02;78.06;97888.53;4433200;32;33409;-78
2023/10/27 03:58:30;;;;;;;3.03;1.10;;;;;;;18.17;77.06;97877.78;4423901;32;33428;-79
2023/10/27 04:01:15;;;;;;;2.37;1.20;;;;;;;17.97;78.09;97880.75;4429982;32;33549;-77
2023/10/27 04:03:43;;;;;;;3.22;1.20;;;;;;;18.09;77.71;97871.81;4428119;32;32819;-78
2023/10/27 04:06:11;;;;;;;3.95;1.60;;;;;;;17.89;78.85;97861.69;4430473;32;33911;-78
2023/10/27 04:08:38;;;;;;;2.83;1.20;;;;;;;17.80;79.08;97862.62;4417628;32;33096;-78
2023/10/27 04:11:06;;;;;;;3.97;1.40;;;;;;;18.01;78.15;97850.13;4419141;32;33807;-78
2023/10/27 04:13:34;;;;;;;4.12;1.60;;;;;;;18.10;77.95;97849.09;4428209;32;33448;-77
2023/10/27 04:16:02;;;;;;;3.37;1.45;;;;;;;17.86;78.80;97846.00;4412510;32;33128;-77
2023/10/27 04:18:30;;;;;;;3.65;1.85;;;;;;;17.48;80.51;97835.19;4423624;32;34482;-78
2023/10/27 04:20:58;;;;;;;3.12;1.20;;;;;;;17.44;81.24;97838.75;4429155;32;33843;-77
2023/10/27 04:23:25;;;;;;;3.08;1.35;;;;;;;17.64;80.13;97824.50;4428669;32;32933;-77
2023/10/27 04:25:53;;;;;;;3.50;1.33;;;;;;;17.80;79.81;97831.22;4421271;32;33471;-79
2023/10/27 04:28:21;;;;;;;2.12;1.10;;;;;;;17.47;81.09;97825.59;4423298;32;34376;-78
2023/10/27 04:30:50;;;;;;;3.53;0.90;;;;;;;17.79;79.78;97812.91;4427448;32;34429;-77
2023/10/27 04:33:18;;;;;;;2.15;0.70;;;;;;;17.63;80.30;97807.03;4434107;32;33057;-78
2023/10/27 04:35:46;;;;;;;1.67;0.70;;;;;;;17.98;78.64;97793.44;4426774;32;33442;-78
2023/10/27 04:38:18;;;;;;;2.20;0.60;;;;;;;17.93;78.72;97789.16;4433928;32;33665;-77
2023/10/27 04:40:45;;;;;;;1.60;0.68;;;;;;;17.75;79.63;97780.69;4428291;32;33718;-77
2023/10/27 04:43:13;;;;;;;2.30;0.80;;;;;;;17.88;79.45;97773.50;4428341;32;34109;-78
2023/10/27 04:45:41;;;;;;;2.53;0.80;;;;;;;18.07;78.35;97766.19;4427354;32;33583;-79
2023/10/27 04:48:08;;;;;;;1.87;0.95;;;;;;;18.04;78.41;97753.13;4427543;32;33818;-77
2023/10/27 04:50:36;;;;;;;4.03;1.20;;;;;;;17.93;78.70;97744.63;4432308;32;35128;-77
2023/10/27 04:53:04;;;;;;;3.00;1.30;;;;;;;17.74;79.33;97752.75;4426953;32;33344;-77
2023/10/27 04:55:31;;;;;;;2.30;1.10;;;;;;;18.01;78.17;97732.25;4428272;32;34220;-77
2023/10/27 04:57:58;;;;;;;1.92;1.10;;;;;;;17.83;79.11;97731.66;4427742;32;33604;-77
2023/10/27 05:00:26;;;;;;;2.17;1.20;;;;;;;17.83;79.11;97731.66;4426299;32;33356;-77
2023/10/27 05:02:54;;;;;;;2.45;1.30;;;;;;;17.80;79.42;97726.47;4425437;32;33216;-78
2023/10/27 05:05:21;;;;;;;3.58;1.33;;;;;;;17.88;79.19;97735.06;4425971;32;34276;-77
2023/10/27 05:07:49;;;;;;;3.08;1.30;;;;;;;17.88;78.88;97719.34;4409685;32;32287;-79
2023/10/27 05:10:19;;;;;;;2.70;1.10;;;;;;;17.63;79.93;97724.13;4429448;32;33552;-79
2023/10/27 05:12:48;;;;;;;2.92;1.30;;;;;;;17.81;79.13;97722.97;4426236;32;33588;-79
2023/10/27 05:15:16;;;;;;;2.05;0.93;;;;;;;17.61;79.99;97714.56;4427738;32;33357;-77
2023/10/27 05:17:43;;;;;;;2.70;1.20;;;;;;;17.88;78.28;97714.13;4427434;32;33516;-77
2023/10/27 05:20:11;;;;;;;4.12;1.40;;;;;;;17.54;80.61;97723.41;4429700;32;33345;-78
2023/10/27 05:22:39;;;;;;;2.85;1.23;;;;;;;17.14;81.69;97718.81;4429239;32;33352;-78
2023/10/27 05:25:06;;;;;;;2.05;1.00;;;;;;;17.77;79.49;97707.31;4425646;32;33461;-78
2023/10/27 05:27:34;;;;;;;2.75;1.20;;;;;;;17.74;79.59;97710.00;4425982;32;34083;-77
2023/10/27 05:30:03;;;;;;;3.20;1.20;;;;;;;17.61;80.48;97706.72;4424629;32;33613;-78
2023/10/27 05:32:33;;;;;;;3.90;1.23;;;;;;;17.95;78.65;97695.69;4428017;32;32906;-79
2023/10/27 05:35:00;;;;;;;3.22;1.23;;;;;;;17.66;79.68;97686.56;4425094;32;33628;-78
2023/10/27 05:37:30;;;;;;;3.15;1.30;;;;;;;17.94;78.41;97680.84;4412203;32;31991;-78
2023/10/27 05:39:58;;;;;;;2.80;1.20;;;;;;;17.51;80.51;97689.44;4425790;32;34452;-77
2023/10/27 05:42:25;;;;;;;3.08;1.35;;;;;;;17.90;78.56;97684.44;4423903;32;33002;-79
2023/10/27 05:44:53;;;;;;;3.40;1.50;;;;;;;17.76;79.08;97672.41;4430590;32;33659;-77
2023/10/27 05:47:21;;;;;;;3.47;1.60;;;;;;;17.45;80.21;97680.81;4426394;32;32290;-77
2023/10/27 05:49:50;;;;;;;3.58;1.58;;;;;;;17.68;79.54;97677.78;4417015;32;33505;-78
2023/10/27 05:52:18;;;;;;;3.90;1.50;;;;;;;17.79;78.71;97666.25;4425835;32;33022;-77
2023/10/27 05:54:46;;;;;;;2.93;1.30;;;;;;;17.86;78.64;97670.53;4428739;32;33615;-78
2023/10/27 05:57:15;;;;;;;2.83;1.35;;;;;;;17.81;78.92;97673.22;4427642;32;33986;-77
2023/10/27 05:59:43;;;;;;;4.27;1.70;;;;;;;17.83;78.05;97663.56;4432306;32;34809;-78
2023/10/27 06:02:11;;;;;;;2.60;1.30;;;;;;;17.65;78.89;97664.78;4430095;32;33826;-78
2023/10/27 06:04:42;;;;;;;3.28;1.27;;;;;;;17.81;78.55;97656.59;4430051;32;34214;-77
2023/10/27 06:07:11;;;;;;;2.93;1.30;;;;;;;17.81;78.65;97652.25;4426711;32;33874;-78
2023/10/27 06:09:39;;;;;;;3.00;1.50;;;;;;;17.25;80.92;97648.91;4432696;32;34270;-77
2023/10/27 06:12:07;;;;;;;3.47;1.90;;;;;;;17.17;81.63;97646.41;4422969;32;33263;-78
2023/10/27 06:14:35;;;;;;;2.90;2.00;;;;;;;17.61;79.85;97638.66;4432810;32;33607;-77
2023/10/27 06:17:02;;;;;;;4.57;2.30;;;;;;;17.84;78.52;97628.66;4422693;32;33679;-77
2023/10/27 06:19:31;;;;;;;4.25;2.20;;;;;;;17.75;78.85;97628.81;4422224;32;33740;-77
2023/10/27 06:22:02;;;;;;;3.65;2.37;;;;;;;17.64;79.35;97615.91;4431644;32;34035;-77
2023/10/27 06:24:29;;;;;;;3.85;2.50;;;;;;;17.60;79.42;97609.00;4428876;32;34092;-76
2023/10/27 06:26:57;;;;;;;5.68;3.00;;;;;;;17.62;79.11;97607.22;4428674;32;34784;-78
2023/10/27 06:29:25;;;;;;;5.03;3.70;;;;;;;17.24;81.32;97611.38;4409836;32;33796;-78
2023/10/27 06:31:52;;;;;;;5.40;3.72;;;;;;;17.85;78.54;97612.06;4404266;32;32472;-77
2023/10/27 06:34:20;;;;;;;5.37;4.30;;;;;;;17.77;79.10;97613.03;4422575;32;33370;-77
2023/10/27 06:36:48;;;;;;;5.93;4.50;;;;;;;17.75;79.12;97607.87;4429866;32;33772;-78
2023/10/27 06:39:15;;;;;;;5.97;4.53;;;;;;;17.70;79.43;97604.47;4426133;32;34321;-78
2023/10/27 06:41:43;;;;;;;7.28;5.00;;;;;;;17.61;79.73;97605.47;4426309;32;33371;-77
2023/10/27 06:44:10;;;;;;;6.32;4.87;;;;;;;17.40;80.75;97600.63;4428202;32;33768;-78
2023/10/27 06:46:38;;;;;;;6.47;4.62;;;;;;;17.82;79.12;97598.97;4427319;32;33589;-78
2023/10/27 06:49:06;;;;;;;6.57;5.03;;;;;;;17.57;80.06;97602.97;4427889;32;34647;-78
2023/10/27 06:51:33;;;;;;;6.20;5.37;;;;;;;17.75;79.40;97597.41;4428578;32;33343;-78
2023/10/27 06:54:01;;;;;;;6.90;5.72;;;;;;;17.49;80.53;97596.09;4428780;32;33337;-78
2023/10/27 06:56:28;;;;;;;7.53;6.00;;;;;;;17.55;80.38;97589.03;4425146;32;33597;-78
2023/10/27 06:58:57;;;;;;;7.57;5.90;;;;;;;17.58;79.75;97578.53;4438211;32;33454;-78
2023/10/27 07:01:25;;;;;;;6.43;5.50;;;;;;;17.37;81.37;97575.41;4428544;32;33188;-78
2023/10/27 07:03:53;;;;;;;8.15;5.53;;;;;;;17.34;81.56;97570.22;4425717;32;33747;-78
2023/10/27 07:06:20;;;;;;;6.62;5.18;;;;;;;17.59;80.84;97565.38;4426602;32;34498;-77
2023/10/27 07:08:48;;;;;;;6.53;5.03;;;;;;;17.95;78.96;97577.84;4428048;32;33896;-77
2023/10/27 07:11:15;;;;;;;6.45;4.87;;;;;;;17.26;82.42;97587.81;4429746;32;33269;-78
2023/10/27 07:13:43;;;;;;;7.55;4.90;;;;;;;17.56;81.22;97580.28;4431330;32;34520;-78
2023/10/27 07:16:10;;;;;;;5.60;4.10;;;;;;;17.60;80.76;97576.75;4431409;32;33742;-78
2023/10/27 07:18:39;;;;;;;5.97;4.60;;;;;;;17.71;80.62;97574.75;4429944;32;33549;-77
2023/10/27 07:21:07;;;;;;;6.00;4.70;;;;;;;17.59;80.88;97559.28;4431467;32;31926;-79
2023/10/27 07:23:36;;;;;;;5.82;4.57;;;;;;;17.25;81.77;97562.56;4412793;32;33507;-77
2023/10/27 07:26:11;;;;;;;7.63;5.00;;;;;;;17.53;81.19;97555.03;4425835;32;34382;-77
2023/10/27 07:28:39;;;;;;;6.90;4.78;;;;;;;16.92;83.79;97551.78;4419903;32;31951;-77
2023/10/27 07:31:07;;;;;;;7.30;4.90;;;;;;;17.27;82.71;97548.53;4424311;32;33213;-76
2023/10/27 07:33:38;;;;;;;7.90;5.07;;;;;;;17.35;81.87;97542.31;4423661;32;33095;-77
2023/10/27 07:36:06;;;;;;;7.62;5.00;;;;;;;17.56;80.92;97538.41;4425556;32;33628;-78
2023/10/27 07:38:37;;;;;;;7.45;4.93;;;;;;;17.43;81.80;97532.56;4428801;32;34413;-78
2023/10/27 07:41:06;;;;;;;6.22;5.00;;;;;;;17.41;82.14;97527.34;4422783;32;33169;-78
2023/10/27 07:43:34;;;;;;;7.68;4.78;;;;;;;17.79;80.10;97533.59;4427021;32;34454;-78
2023/10/27 07:46:03;;;;;;;6.47;4.80;;;;;;;17.65;81.11;97538.22;4426014;32;33695;-77
2023/10/27 07:48:31;;;;;;;7.70;5.70;;;;;;;17.52;80.54;97527.16;4434081;32;33197;-78
2023/10/27 07:51:00;;;;;;;8.50;5.25;;;;;;;17.44;81.70;97522.06;4426404;32;33007;-78
2023/10/27 07:53:28;;;;;;;7.65;5.07;;;;;;;17.89;80.12;97521.19;4431081;32;33518;-78
2023/10/27 07:55:56;;;;;;;7.32;4.78;;;;;;;17.82;79.99;97515.19;4430045;32;33247;-78
2023/10/27 07:58:25;;;;;;;5.87;4.32;;;;;;;17.79;80.38;97515.25;4423470;32;33574;-78
2023/10/27 08:00:53;;;;;;;7.25;4.45;;;;;;;17.80;80.13;97509.09;4425399;32;33485;-78
2023/10/27 08:03:21;;;;;;;6.70;4.57;;;;;;;17.65;80.05;97501.56;4426039;32;34239;-78
2023/10/27 08:05:50;;;;;;;6.07;4.00;;;;;;;17.87;80.09;97497.66;4414352;32;33372;-78
2023/10/27 08:08:18;;;;;;;6.22;4.03;;;;;;;18.10;78.97;97498.03;4428332;32;33769;-78
2023/10/27 08:10:47;;;;;;;6.43;3.80;;;;;;;18.16;78.56;97488.28;4428021;32;33859;-78
2023/10/27 08:13:20;;;;;;;6.50;3.90;;;;;;;18.14;77.80;97479.59;4422920;32;33499;-78
2023/10/27 08:15:49;;;;;;;5.77;3.60;;;;;;;18.24;77.81;97470.63;4425477;32;33220;-78
2023/10/27 08:18:16;;;;;;;7.37;3.83;;;;;;;18.04;78.04;97476.34;4424255;32;34381;-78
2023/10/27 08:20:44;;;;;;;6.30;3.50;;;;;;;17.99;79.27;97475.56;4423165;32;33895;-78
2023/10/27 08:23:12;;;;;;;6.70;3.33;;;;;;;18.00;78.90;97460.69;4422614;32;34022;-78
2023/10/27 08:25:40;;;;;;;7.17;3.00;;;;;;;18.02;78.30;97469.38;4430884;32;33871;-78
2023/10/27 08:28:08;;;;;;;7.03;2.80;;;;;;;17.77;79.67;97466.41;4415028;32;33300;-78
2023/10/27 08:30:35;;;;;;;5.72;2.50;;;;;;;17.72;80.25;97466.53;4403945;32;31587;-78
2023/10/27 08:33:03;;;;;;;4.90;2.40;;;;;;;17.74;79.32;97459.50;4430747;32;33537;-77
2023/10/27 08:35:31;;;;;;;5.12;2.37;;;;;;;18.15;77.93;97455.13;4416341;32;34537;-78
2023/10/27 08:37:59;;;;;;;6.87;2.53;;;;;;;18.23;77.85;97453.19;4424423;32;34158;-78
2023/10/27 08:40:27;;;;;;;4.83;2.30;;;;;;;17.88;78.97;97446.97;4421285;32;33307;-77
2023/10/27 08:42:56;;;;;;;5.22;2.40;;;;;;;18.12;78.52;97423.75;4421053;32;33594;-77
2023/10/27 08:45:23;;;;;;;5.10;2.10;;;;;;;18.40;77.18;97428.34;4425494;32;33224;-79
2023/10/27 08:47:53;;;;;;;6.03;2.40;;;;;;;18.16;77.96;97404.44;4417235;32;33986;-78
2023/10/27 08:50:21;;;;;;;5.37;2.10;;;;;;;17.86;78.95;97391.16;4412004;32;32715;-77
2023/10/27 08:52:50;;;;;;;5.00;2.23;;;;;;;17.72;79.99;97397.59;4425420;32;34420;-78
2023/10/27 08:55:20;;;;;;;4.83;2.13;;;;;;;18.00;79.05;97392.59;4425659;32;34594;-78
2023/10/27 08:57:48;;;;;;;5.20;2.15;;;;;;;18.07;78.51;97388.94;4408340;32;31966;-78
2023/10/27 09:00:16;;;;;;;6.18;2.17;;;;;;;17.98;78.94;97383.91;4409051;32;32962;-78
2023/10/27 09:02:43;;;;;;;7.40;2.27;;;;;;;17.72;79.99;97379.28;4430677;32;33244;-78
2023/10/27 09:05:11;;;;;;;6.17;2.30;;;;;;;17.96;79.12;97383.94;4429622;32;33530;-78
2023/10/27 09:07:39;;;;;;;6.00;2.47;;;;;;;18.16;78.29;97372.16;4408030;32;34245;-78
2023/10/27 09:10:08;;;;;;;4.37;2.33;;;;;;;18.22;77.72;97362.38;4422556;32;33210;-78
2023/10/27 09:12:39;;;;;;;5.53;2.25;;;;;;;18.11;78.52;97363.53;4424537;32;34079;-78
2023/10/27 09:15:08;;;;;;;5.25;2.20;;;;;;;18.06;79.30;97361.03;4423453;32;33201;-77
2023/10/27 09:17:56;;;;;;;6.35;2.22;;;;;;;18.40;77.55;97350.56;4400882;32;34304;-78
2023/10/27 09:20:25;;;;;;;5.25;2.20;;;;;;;17.87;79.39;97356.25;4429769;32;31933;-78
2023/10/27 09:23:01;;;;;;;4.90;2.00;;;;;;;18.14;78.37;97353.84;4426198;32;34405;-78
2023/10/27 09:25:30;;;;;;;4.30;1.93;;;;;;;18.23;78.08;97345.75;4430455;32;33080;-78
2023/10/27 09:27:59;;;;;;;6.68;2.37;;;;;;;18.25;77.64;97340.47;4424672;32;34334;-78
2023/10/27 09:30:30;;;;;;;6.25;2.10;;;;;;;18.37;77.31;97339.28;4425282;32;33197;-78
2023/10/27 09:33:12;;;;;;;6.53;2.67;;;;;;;18.35;77.26;97331.50;4421331;32;33191;-77
2023/10/27 09:35:41;;;;;;;4.55;2.00;;;;;;;18.41;76.75;97320.84;4428946;32;32680;-77
2023/10/27 09:38:09;;;;;;;5.72;1.92;;;;;;;18.37;77.56;97318.31;4411694;32;33731;-78
2023/10/27 09:40:40;;;;;;;6.70;1.90;;;;;;;18.46;76.97;97304.97;4421518;32;33831;-78
2023/10/27 09:43:17;;;;;;;5.43;1.98;;;;;;;18.45;76.86;97311.97;4422554;32;33463;-78
2023/10/27 09:45:55;;;;;;;5.40;2.10;;;;;;;18.78;76.08;97316.34;4430583;32;33070;-77
2023/10/27 09:48:27;;;;;;;4.40;2.20;;;;;;;18.52;77.54;97298.72;4426430;32;33064;-78
2023/10/27 09:51:01;;;;;;;5.75;2.12;;;;;;;18.41;77.91;97285.91;4427402;32;33182;-78
2023/10/27 09:53:29;;;;;;;6.03;1.90;;;;;;;18.50;77.36;97283.00;4424764;32;33219;-77
2023/10/27 09:55:58;;;;;;;5.05;1.90;;;;;;;18.97;75.16;97286.09;4418128;32;33667;-77
2023/10/27 09:58:34;;;;;;;5.53;1.90;;;;;;;18.75;76.13;97277.94;4428274;32;34081;-78
2023/10/27 10:01:03;;;;;;;4.28;1.50;;;;;;;18.90;75.12;97271.44;4416248;32;32845;-77
2023/10/27 10:03:32;;;;;;;5.63;2.03;;;;;;;18.88;75.99;97257.50;4409017;32;34193;-77
2023/10/27 10:06:13;;;;;;;7.12;1.87;;;;;;;18.86;75.70;97264.56;4428269;32;32302;-78
2023/10/27 10:09:05;;;;;;;5.07;1.80;;;;;;;18.70;75.83;97252.75;4432451;32;33077;-76
2023/10/27 10:11:47;;;;;;;4.30;1.83;;;;;;;18.84;75.85;97250.66;4422722;32;32404;-77
2023/10/27 10:14:45;;;;;;;5.63;1.90;;;;;;;18.89;75.71;97269.75;4432350;32;32597;-77
2023/10/27 10:17:37;;;;;;;5.47;2.10;;;;;;;18.20;78.22;97248.87;4426056;32;33984;-76
2023/10/27 10:20:06;;;;;;;6.07;2.03;;;;;;;18.10;79.00;97255.28;4429751;32;32886;-76
2023/10/27 10:22:37;;;;;;;5.67;1.67;;;;;;;18.52;77.47;97241.87;4430150;32;33111;-76
2023/10/27 10:25:14;;;;;;;5.70;1.83;;;;;;;18.91;75.40;97257.44;4427983;32;33723;-77
2023/10/27 10:28:06;;;;;;;4.53;1.70;;;;;;;18.67;75.78;97259.81;4432809;32;33247;-78
2023/10/27 10:30:39;;;;;;;7.20;2.00;;;;;;;18.54;76.09;97240.09;4415194;32;31573;-77
2023/10/27 10:33:14;;;;;;;4.43;1.67;;;;;;;18.75;75.98;97228.13;4412365;32;32466;-76
2023/10/27 10:36:05;;;;;;;5.53;1.80;;;;;;;18.99;74.94;97238.84;4427621;32;32953;-77
2023/10/27 10:38:37;;;;;;;7.05;1.77;;;;;;;18.78;75.58;97240.31;4419852;32;33617;-76
2023/10/27 10:41:04;;;;;;;7.75;2.20;;;;;;;19.10;74.54;97230.62;4428019;32;34163;-76
2023/10/27 10:43:40;;;;;;;6.45;2.10;;;;;;;19.01;74.88;97219.53;4428447;32;33155;-78
2023/10/27 10:46:11;;;;;;;5.07;1.80;;;;;;;19.00;75.29;97217.78;4414197;32;32921;-76
2023/10/27 10:48:46;;;;;;;5.53;1.98;;;;;;;18.56;76.22;97213.84;4424701;32;33661;-77
2023/10/27 10:51:15;;;;;;;5.03;2.17;;;;;;;19.28;74.62;97214.34;4431805;32;32896;-78
2023/10/27 10:53:55;;;;;;;6.50;2.28;;;;;;;19.24;74.79;97207.47;4430558;32;33506;-79
2023/10/27 10:56:24;;;;;;;7.35;2.50;;;;;;;19.05;75.26;97196.69;4432719;32;32815;-78
2023/10/27 10:58:52;;;;;;;5.10;2.10;;;;;;;18.59;76.93;97185.75;4433654;32;34348;-77
2023/10/27 11:01:21;;;;;;;5.95;2.30;;;;;;;19.05;75.83;97192.28;4427707;32;34570;-78
2023/10/27 11:03:49;;;;;;;6.93;1.98;;;;;;;19.26;75.15;97179.41;4411674;32;34043;-79
2023/10/27 11:06:23;;;;;;;5.28;2.05;;;;;;;19.12;75.80;97184.22;4421602;32;33476;-77
2023/10/27 11:08:51;;;;;;;11.35;2.20;;;;;;;19.11;76.50;97185.12;4426336;32;33327;-77
2023/10/27 11:11:20;;;;;;;5.45;2.30;;;;;;;19.09;76.38;97197.44;4427444;32;33568;-78
2023/10/27 11:13:51;;;;;;;6.22;2.10;;;;;;;19.11;76.11;97201.72;4432174;32;34129;-77
2023/10/27 11:16:23;;;;;;;7.57;2.85;;;;;;;19.15;76.71;97208.59;4424529;32;33548;-78
2023/10/27 11:19:02;;;;;;;7.12;2.62;;;;;;;18.93;77.41;97231.12;4419593;32;34406;-78
2023/10/27 11:21:32;;;;;;;7.30;2.40;;;;;;;19.07;77.24;97252.59;4433802;32;33098;-78
2023/10/27 11:24:06;;;;;;;4.50;1.80;;;;;;;19.15;77.18;97249.72;4431462;32;33775;-78
2023/10/27 11:26:44;;;;;;;6.57;1.90;;;;;;;18.88;78.22;97273.25;4423984;32;34122;-78
2023/10/27 11:29:12;;;;;;;4.60;2.05;;;;;;;19.04;77.91;97290.28;4417419;32;33132;-77
2023/10/27 11:31:44;;;;;;;4.60;1.87;;;;;;;19.10;77.64;97288.34;4428394;32;32670;-78
2023/10/27 11:34:18;;;;;;;3.90;1.90;;;;;;;19.30;76.77;97288.63;4409872;32;33287;-77
2023/10/27 11:37:01;;;;;;;3.40;1.40;;;;;;;19.13;77.30;97283.03;4426049;32;33813;-77
2023/10/27 11:39:33;;;;;;;3.58;1.02;;;;;;;19.21;76.71;97283.66;4419533;32;35564;-78
2023/10/27 11:42:01;;;;;;;3.05;1.10;;;;;;;18.95;77.53;97274.81;4430344;32;33913;-76
2023/10/27 11:44:40;;;;;;;3.08;1.35;;;;;;;18.84;77.75;97274.25;4410202;32;32623;-77